To NAV CANADA Home Page Login to a new session Search on AWWS site Feedback and Comments Disclaimer Vers la page française équivalente Tips FAQ What's new on the site To the Forecasts and Observations / NOTAM section To "File a Flight Plan" website Publications and other links Update of the User's profile FIC Telephone Numbers My Weather Data Folder Route Weather Data Regional Weather Data Local Weather Data To the Forecasts and Observations / NOTAM section
Request Generated 04/27/2015 at 05:32:55 UTC . Weather information available at that time is displayed.

METAR/TAF

KUUJJUAQ/QC    

SPECI CYVP 270524Z 34004KT 15SM FEW004 OVC059 M01/M02 A3039 RMK
SF1SC8 SF TR SLP294=
METAR CYVP 270500Z 34004KT 15SM BKN060 M01/M02 A3039 RMK SC7 SLP293=
METAR CYVP 270400Z 35005KT 15SM OVC061 M01/M02 A3039 RMK SC8 SLP292=
METAR CYVP 270300Z 35005KT 15SM OVC060 M00/M02 A3039 RMK SC8 SLP295=

TAF CYVP 262338Z 2700/2712 05010KT P6SM SCT020 BKN070 TEMPO 2700/2712
BKN020 OVC070
BECMG 2700/2702 VRB03KT
RMK NXT FCST BY 270600Z=
Your time UTC time
Weather data provided by Environment Canada and NAV CANADA